createdAt,value
2018-08-11T00:01:47.994Z,101426.23
2018-08-11T00:04:17.930Z,101424.23
2018-08-11T00:06:47.784Z,101423.55
2018-08-11T00:09:17.404Z,101427.06
2018-08-11T00:11:46.856Z,101425.76
2018-08-11T00:14:16.651Z,101420.45
2018-08-11T00:16:46.587Z,101420.88
2018-08-11T00:19:16.389Z,101413.77
2018-08-11T00:21:46.042Z,101415.66
2018-08-11T00:24:15.581Z,101414.33
2018-08-11T00:26:45.415Z,101410.44
2018-08-11T00:29:15.434Z,101411.92
2018-08-11T00:31:44.984Z,101409.00
2018-08-11T00:34:15.018Z,101409.52
2018-08-11T00:36:44.862Z,101396.48
2018-08-11T00:39:14.677Z,101394.48
2018-08-11T00:41:44.557Z,101388.03
2018-08-11T00:44:14.489Z,101388.53
2018-08-11T00:46:44.373Z,101390.57
2018-08-11T00:49:14.329Z,101382.41
2018-08-11T00:51:44.128Z,101386.61
2018-08-11T00:54:13.797Z,101395.14
2018-08-11T00:56:43.596Z,101391.67
2018-08-11T00:59:13.155Z,101387.42
2018-08-11T01:01:43.014Z,101379.20
2018-08-11T01:04:12.921Z,101380.84
2018-08-11T01:06:42.668Z,101377.93
2018-08-11T01:09:12.565Z,101373.58
2018-08-11T01:11:42.576Z,101374.73
2018-08-11T01:14:12.368Z,101376.59
2018-08-11T01:16:41.881Z,101376.23
2018-08-11T01:19:11.731Z,101382.25
2018-08-11T01:21:41.608Z,101379.28
2018-08-11T01:24:11.435Z,101366.09
2018-08-11T01:26:41.241Z,101378.12
2018-08-11T01:29:11.118Z,101368.39
2018-08-11T01:31:40.582Z,101372.63
2018-08-11T01:34:10.015Z,101371.42
2018-08-11T01:36:40.946Z,101365.57
2018-08-11T01:39:10.957Z,101374.16
2018-08-11T01:41:41.365Z,101375.06
2018-08-11T01:44:11.205Z,101368.19
2018-08-11T01:46:41.215Z,101366.44
2018-08-11T01:49:11.461Z,101364.73
2018-08-11T01:51:41.553Z,101363.95
2018-08-11T01:54:11.493Z,101358.00
2018-08-11T01:56:41.465Z,101353.67
2018-08-11T01:59:11.379Z,101351.65
2018-08-11T02:01:40.891Z,101353.89
2018-08-11T02:04:10.677Z,101352.92
2018-08-11T02:06:40.034Z,101343.50
2018-08-11T02:09:10.408Z,101344.55
2018-08-11T02:11:40.650Z,101342.64
2018-08-11T02:14:10.926Z,101340.73
2018-08-11T02:16:41.213Z,101348.17
2018-08-11T02:19:11.286Z,101344.12
2018-08-11T02:21:41.037Z,101335.94
2018-08-11T02:24:10.528Z,101340.36
2018-08-11T02:26:39.910Z,101333.06
2018-08-11T02:29:10.464Z,101326.67
2018-08-11T02:31:40.301Z,101322.61
2018-08-11T02:34:11.407Z,101325.91
2018-08-11T02:36:41.040Z,101326.48
2018-08-11T02:39:14.145Z,101323.98
2018-08-11T02:41:43.865Z,101320.63
2018-08-11T02:44:13.361Z,101316.81
2018-08-11T02:46:42.816Z,101319.61
2018-08-11T02:49:12.205Z,101315.72
2018-08-11T02:51:41.668Z,101306.53
2018-08-11T02:54:12.119Z,101314.92
2018-08-11T02:56:41.893Z,101310.27
2018-08-11T02:59:11.739Z,101311.15
2018-08-11T03:01:41.229Z,101311.15
2018-08-11T03:04:10.688Z,101309.39
2018-08-11T03:06:40.537Z,101312.52
2018-08-11T03:09:10.208Z,101307.79
2018-08-11T03:11:39.969Z,101304.41
2018-08-11T03:14:10.591Z,101298.19
2018-08-11T03:16:41.838Z,101294.45
2018-08-11T03:19:12.435Z,101292.50
2018-08-11T03:21:41.975Z,101290.33
2018-08-11T03:24:12.442Z,101280.58
2018-08-11T03:26:42.338Z,101285.95
2018-08-11T03:29:11.844Z,101284.13
2018-08-11T03:31:41.507Z,101283.70
2018-08-11T03:34:10.964Z,101282.48
2018-08-11T03:36:43.152Z,101290.13
2018-08-11T03:39:13.346Z,101286.13
2018-08-11T03:41:43.068Z,101289.22
2018-08-11T03:44:12.660Z,101293.07
2018-08-11T03:46:42.756Z,101288.39
2018-08-11T03:49:12.157Z,101294.03
2018-08-11T03:51:41.655Z,101291.02
2018-08-11T03:54:11.127Z,101296.08
2018-08-11T03:56:41.581Z,101292.54
2018-08-11T03:59:11.606Z,101294.30
2018-08-11T04:01:41.428Z,101296.05
2018-08-11T04:04:10.843Z,101306.75
2018-08-11T04:06:41.024Z,101310.25
2018-08-11T04:09:11.412Z,101311.90
2018-08-11T04:11:41.000Z,101307.14
2018-08-11T04:14:11.574Z,101301.24
2018-08-11T04:16:43.926Z,101302.42
2018-08-11T04:19:13.715Z,101300.09
2018-08-11T04:21:43.203Z,101298.23
2018-08-11T04:24:13.755Z,101298.91
2018-08-11T04:26:43.267Z,101298.40
2018-08-11T04:29:13.279Z,101300.95
2018-08-11T04:31:43.852Z,101298.13
2018-08-11T04:34:13.487Z,101303.33
2018-08-11T04:36:43.487Z,101299.05
2018-08-11T04:39:13.807Z,101302.97
2018-08-11T04:41:43.287Z,101299.74
2018-08-11T04:44:13.226Z,101292.67
2018-08-11T04:46:43.138Z,101292.23
2018-08-11T04:49:12.991Z,101293.12
2018-08-11T04:51:42.490Z,101289.80
2018-08-11T04:54:12.677Z,101287.77
2018-08-11T04:56:43.514Z,101290.33
2018-08-11T04:59:13.239Z,101284.39
2018-08-11T05:01:44.252Z,101279.66
2018-08-11T05:04:17.129Z,101276.42
2018-08-11T05:06:50.915Z,101276.02
2018-08-11T05:09:20.618Z,101276.56
2018-08-11T05:11:50.793Z,101278.97
2018-08-11T05:14:21.965Z,101278.27
2018-08-11T05:16:52.711Z,101273.95
2018-08-11T05:19:22.161Z,101263.44
2018-08-11T05:21:52.377Z,101266.20
2018-08-11T05:24:22.399Z,101270.00
2018-08-11T05:26:52.427Z,101268.31
2018-08-11T05:29:22.158Z,101265.73
2018-08-11T05:31:51.663Z,101268.30
2018-08-11T05:34:21.131Z,101271.30
2018-08-11T05:36:51.203Z,101268.95
2018-08-11T05:39:20.723Z,101264.92
2018-08-11T05:41:51.202Z,101263.34
2018-08-11T05:44:21.693Z,101260.72
2018-08-11T05:46:51.553Z,101257.58
2018-08-11T05:49:20.971Z,101249.22
2018-08-11T05:51:50.395Z,101248.58
2018-08-11T05:54:20.599Z,101250.17
2018-08-11T05:56:50.629Z,101256.02
2018-08-11T05:59:20.315Z,101253.07
2018-08-11T06:01:49.731Z,101252.56
2018-08-11T06:04:19.317Z,101219.97
2018-08-11T06:06:48.942Z,101237.88
2018-08-11T06:09:20.623Z,101241.59
2018-08-11T06:11:51.286Z,101249.05
2018-08-11T06:14:21.946Z,101241.62
2018-08-11T06:16:51.486Z,101240.96
2018-08-11T06:19:22.074Z,101236.98
2018-08-11T06:21:52.395Z,101235.06
2018-08-11T06:24:21.858Z,101238.11
2018-08-11T06:26:51.853Z,101238.23
2018-08-11T06:29:21.731Z,101235.88
2018-08-11T06:31:51.237Z,101242.95
2018-08-11T06:34:21.074Z,101250.30
2018-08-11T06:36:50.853Z,101253.86
2018-08-11T06:39:20.802Z,101260.63
2018-08-11T06:41:51.186Z,101255.13
2018-08-11T06:44:20.767Z,101258.62
2018-08-11T06:46:51.991Z,101255.23
2018-08-11T06:49:21.579Z,101257.36
2018-08-11T06:51:51.397Z,101252.44
2018-08-11T06:54:20.884Z,101250.27
2018-08-11T06:56:50.793Z,101262.16
2018-08-11T06:59:20.491Z,101267.98
2018-08-11T07:01:51.440Z,101277.00
2018-08-11T07:04:22.297Z,101279.23
2018-08-11T07:06:52.125Z,101282.05
2018-08-11T07:09:21.740Z,101281.52
2018-08-11T07:11:51.283Z,101285.36
2018-08-11T07:14:22.007Z,101292.68
2018-08-11T07:16:51.826Z,101291.88
2018-08-11T07:19:21.806Z,101298.98
2018-08-11T07:21:51.846Z,101290.14
2018-08-11T07:24:21.391Z,101291.14
2018-08-11T07:26:50.867Z,101296.12
2018-08-11T07:29:20.886Z,101289.89
2018-08-11T07:31:50.924Z,101295.61
2018-08-11T07:34:20.831Z,101282.53
2018-08-11T07:36:50.455Z,101295.82
2018-08-11T07:39:20.032Z,101294.92
2018-08-11T07:41:49.808Z,101289.38
2018-08-11T07:44:20.562Z,101275.27
2018-08-11T07:46:51.230Z,101265.98
2018-08-11T07:49:20.742Z,101260.52
2018-08-11T07:51:50.223Z,101255.69
2018-08-11T07:54:19.985Z,101251.39
2018-08-11T07:56:49.490Z,101246.61
2018-08-11T07:59:19.475Z,101250.53
2018-08-11T08:01:49.535Z,101249.72
2018-08-11T08:04:19.335Z,101242.53
2018-08-11T08:06:49.322Z,101244.70
2018-08-11T08:09:18.819Z,101239.80
2018-08-11T08:11:48.721Z,101260.53
2018-08-11T08:14:18.532Z,101256.48
2018-08-11T08:16:48.443Z,101245.74
2018-08-11T08:19:17.994Z,101245.11
2018-08-11T08:21:47.813Z,101237.89
2018-08-11T08:24:17.730Z,101245.20
2018-08-11T08:26:48.906Z,101237.55
2018-08-11T08:29:18.866Z,101231.47
2018-08-11T08:31:48.758Z,101227.02
2018-08-11T08:34:18.585Z,101230.45
2018-08-11T08:36:48.442Z,101225.80
2018-08-11T08:39:18.341Z,101222.03
2018-08-11T08:41:47.909Z,101218.25
2018-08-11T08:44:17.721Z,101224.63
2018-08-11T08:46:47.206Z,101225.23
2018-08-11T08:49:16.895Z,101226.10
2018-08-11T08:51:47.526Z,101227.31
2018-08-11T08:54:17.531Z,101225.55
2018-08-11T08:56:47.043Z,101231.21
2018-08-11T08:59:17.041Z,101231.93
2018-08-11T09:01:46.661Z,101228.64
2018-08-11T09:04:16.578Z,101219.76
2018-08-11T09:06:46.139Z,101223.97
2018-08-11T09:09:15.678Z,101212.79
2018-08-11T09:11:50.493Z,101208.79
2018-08-11T09:14:21.058Z,101197.69
2018-08-11T09:16:50.614Z,101196.67
2018-08-11T09:19:20.372Z,101200.98
2018-08-11T09:21:50.890Z,101202.06
2018-08-11T09:24:22.738Z,101207.76
2018-08-11T09:26:54.678Z,101205.91
2018-08-11T09:29:28.016Z,101207.17
2018-08-11T09:31:58.462Z,101210.95
2018-08-11T09:34:31.446Z,101110.14
2018-08-11T09:37:01.660Z,101207.50
2018-08-11T09:39:31.262Z,101204.30
2018-08-11T09:42:00.841Z,101202.50
2018-08-11T09:44:32.181Z,101204.29
2018-08-11T09:47:01.942Z,101199.94
2018-08-11T09:49:31.978Z,101193.33
2018-08-11T09:52:02.677Z,101194.57
2018-08-11T09:54:36.510Z,101198.54
2018-08-11T09:57:07.297Z,101197.62
2018-08-11T09:59:37.976Z,101193.02
2018-08-11T10:02:12.669Z,101186.64
2018-08-11T10:04:50.241Z,101191.54
2018-08-11T10:07:22.287Z,101194.47
2018-08-11T10:09:53.421Z,101188.09
2018-08-11T10:12:26.931Z,101188.00
2018-08-11T10:15:14.575Z,101185.70
2018-08-11T10:17:44.473Z,101189.87
2018-08-11T10:20:16.451Z,101187.46
2018-08-11T10:22:47.287Z,101182.31
2018-08-11T10:25:17.657Z,101177.05
2018-08-11T10:27:47.595Z,101168.17
2018-08-11T10:30:24.862Z,101169.34
2018-08-11T10:33:13.237Z,101167.31
2018-08-11T10:35:44.665Z,101160.58
2018-08-11T10:38:16.859Z,101167.48
2018-08-11T10:40:48.743Z,101165.41
2018-08-11T10:43:21.109Z,101161.67
2018-08-11T10:46:05.317Z,101158.44
2018-08-11T10:48:40.248Z,101155.53
2018-08-11T10:51:13.077Z,101161.30
2018-08-11T10:53:45.790Z,101166.02
2018-08-11T10:56:15.789Z,101161.75
2018-08-11T10:58:45.573Z,101164.09
2018-08-11T11:01:16.568Z,101166.92
2018-08-11T11:03:46.469Z,101169.22
2018-08-11T11:06:16.623Z,101174.64
2018-08-11T11:08:49.457Z,101175.78
2018-08-11T11:11:19.872Z,101175.66
2018-08-11T11:13:50.595Z,101173.29
2018-08-11T11:16:25.345Z,101175.09
2018-08-11T11:18:55.876Z,101178.12
2018-08-11T11:21:27.461Z,101176.61
2018-08-11T11:23:57.133Z,101174.70
2018-08-11T11:26:27.543Z,101185.14
2018-08-11T11:28:58.244Z,101174.27
2018-08-11T11:31:28.205Z,101165.91
2018-08-11T11:33:58.125Z,101162.10
2018-08-11T11:36:30.126Z,101163.28
2018-08-11T11:39:01.264Z,101161.23
2018-08-11T11:41:32.373Z,101163.61
2018-08-11T11:44:02.447Z,101166.73
2018-08-11T11:46:32.508Z,101169.06
2018-08-11T11:49:04.655Z,101153.52
2018-08-11T11:51:34.605Z,101152.04
2018-08-11T11:54:05.061Z,101151.06
2018-08-11T11:56:35.353Z,101148.40
2018-08-11T11:59:04.989Z,101141.67
2018-08-11T12:01:35.078Z,101126.42
2018-08-11T12:04:05.049Z,101132.27
2018-08-11T12:06:35.511Z,101131.83
2018-08-11T12:09:08.947Z,101130.36
2018-08-11T12:11:39.098Z,101123.42
2018-08-11T12:14:08.832Z,101119.92
2018-08-11T12:16:38.612Z,101113.51
2018-08-11T12:19:09.930Z,101112.19
2018-08-11T12:21:39.897Z,101125.71
2018-08-11T12:24:09.978Z,101121.01
2018-08-11T12:26:39.440Z,101113.89
2018-08-11T12:29:09.179Z,101112.67
2018-08-11T12:31:38.992Z,101103.62
2018-08-11T12:34:09.156Z,101104.13
2018-08-11T12:36:39.000Z,101090.10
2018-08-11T12:39:10.235Z,101098.48
2018-08-11T12:41:40.801Z,101095.23
2018-08-11T12:44:11.858Z,101093.55
2018-08-11T12:46:41.674Z,101106.99
2018-08-11T12:49:12.740Z,101110.38
2018-08-11T12:51:44.229Z,101107.00
2018-08-11T12:54:14.504Z,101126.47
2018-08-11T12:56:44.458Z,101120.83
2018-08-11T12:59:14.109Z,101132.64
2018-08-11T13:01:44.095Z,101123.23
2018-08-11T13:04:15.025Z,101132.39
2018-08-11T13:06:45.393Z,101131.23
2018-08-11T13:09:15.192Z,101128.45
2018-08-11T13:11:44.856Z,101125.09
2018-08-11T13:14:22.621Z,101132.80
2018-08-11T13:16:53.344Z,101122.95
2018-08-11T13:19:22.885Z,101128.75
2018-08-11T13:21:54.131Z,101127.06
2018-08-11T13:24:23.980Z,101128.19
2018-08-11T13:26:53.583Z,101115.86
2018-08-11T13:29:23.015Z,101126.32
2018-08-11T13:31:53.634Z,101117.73
2018-08-11T13:34:23.134Z,101117.08
2018-08-11T13:36:54.078Z,101114.29
2018-08-11T13:39:23.571Z,101127.50
2018-08-11T13:41:54.261Z,101134.06
2018-08-11T13:44:24.770Z,101121.00
2018-08-11T13:46:54.537Z,101111.66
2018-08-11T13:49:25.300Z,101118.68
2018-08-11T13:51:55.251Z,101115.14
2018-08-11T13:54:25.156Z,101115.67
2018-08-11T13:56:55.694Z,101114.59
2018-08-11T13:59:25.615Z,101124.81
2018-08-11T14:01:55.423Z,101108.98
2018-08-11T14:04:26.301Z,101110.03
2018-08-11T14:06:56.325Z,101110.83
2018-08-11T14:09:26.305Z,101106.34
2018-08-11T14:11:56.678Z,101123.83
2018-08-11T14:14:26.433Z,101111.77
2018-08-11T14:16:56.270Z,101104.16
2018-08-11T14:19:26.321Z,101125.70
2018-08-11T14:21:57.955Z,101118.63
2018-08-11T14:24:27.715Z,101128.95
2018-08-11T14:26:57.544Z,101125.87
2018-08-11T14:29:28.984Z,101122.08
2018-08-11T14:31:58.961Z,101115.17
2018-08-11T14:34:28.415Z,101111.05
2018-08-11T14:36:59.510Z,101110.48
2018-08-11T14:39:29.443Z,101104.11
2018-08-11T14:41:59.515Z,101107.08
2018-08-11T14:44:30.673Z,101109.81
2018-08-11T14:47:00.475Z,101104.70
2018-08-11T14:49:30.898Z,101111.35
2018-08-11T14:52:00.755Z,101111.46
2018-08-11T14:54:31.740Z,101104.37
2018-08-11T14:57:01.135Z,101109.31
2018-08-11T14:59:30.775Z,101100.45
2018-08-11T15:02:00.823Z,101114.44
2018-08-11T15:04:30.339Z,101099.41
2018-08-11T15:07:00.317Z,101109.20
2018-08-11T15:09:31.163Z,101097.98
2018-08-11T15:12:00.729Z,101102.22
2018-08-11T15:14:30.159Z,101093.05
2018-08-11T15:17:00.891Z,101093.44
2018-08-11T15:19:31.299Z,101101.56
2018-08-11T15:22:02.869Z,101092.86
2018-08-11T15:24:33.274Z,101097.08
2018-08-11T15:27:04.676Z,101094.84
2018-08-11T15:29:34.707Z,101093.33
2018-08-11T15:32:05.315Z,101090.44
2018-08-11T15:34:35.063Z,101081.82
2018-08-11T15:37:04.961Z,101081.16
2018-08-11T15:39:34.857Z,101084.99
2018-08-11T15:42:04.393Z,101082.93
2018-08-11T15:44:33.782Z,101082.75
2018-08-11T15:47:03.727Z,101078.95
2018-08-11T15:49:36.846Z,101084.73
2018-08-11T15:52:06.832Z,101081.95
2018-08-11T15:54:37.056Z,101083.20
2018-08-11T15:57:07.049Z,101084.77
2018-08-11T15:59:36.946Z,101093.71
2018-08-11T16:02:06.985Z,101087.00
2018-08-11T16:04:36.533Z,101091.80
2018-08-11T16:07:06.588Z,101089.94
2018-08-11T16:09:43.114Z,101097.97
2018-08-11T16:12:12.971Z,101089.04
2018-08-11T16:14:42.939Z,101094.55
2018-08-11T16:17:12.687Z,101094.06
2018-08-11T16:19:44.079Z,101093.71
2018-08-11T16:22:13.544Z,101095.67
2018-08-11T16:24:43.157Z,101100.99
2018-08-11T16:27:12.720Z,101104.27
2018-08-11T16:29:42.522Z,101112.90
2018-08-11T16:32:12.356Z,101109.84
2018-08-11T16:34:41.786Z,101102.57
2018-08-11T16:37:11.808Z,101102.69
2018-08-11T16:39:43.655Z,101107.70
2018-08-11T16:42:13.550Z,101110.63
2018-08-11T16:44:43.670Z,101108.08
2018-08-11T16:47:13.611Z,101107.11
2018-08-11T16:49:43.349Z,101112.37
2018-08-11T16:52:13.219Z,101105.32
2018-08-11T16:54:42.727Z,101110.94
2018-08-11T16:57:12.136Z,101115.33
2018-08-11T16:59:42.217Z,101119.68
2018-08-11T17:02:11.768Z,101123.36
2018-08-11T17:04:42.586Z,101121.98
2018-08-11T17:07:12.050Z,101123.83
2018-08-11T17:09:41.468Z,101124.55
2018-08-11T17:12:12.227Z,101129.75
2018-08-11T17:14:41.984Z,101122.55
2018-08-11T17:17:11.514Z,101129.64
2018-08-11T17:19:40.978Z,101133.57
2018-08-11T17:22:10.426Z,101130.30
2018-08-11T17:24:39.986Z,101135.28
2018-08-11T17:27:10.226Z,101137.20
2018-08-11T17:29:40.010Z,101131.80
2018-08-11T17:32:10.145Z,101140.30
2018-08-11T17:34:40.180Z,101142.72
2018-08-11T17:37:10.103Z,101141.55
2018-08-11T17:39:40.354Z,101134.52
2018-08-11T17:42:10.022Z,101154.13
2018-08-11T17:44:39.790Z,101148.83
2018-08-11T17:47:09.279Z,101145.24
2018-08-11T17:49:39.441Z,101157.58
2018-08-11T17:52:09.078Z,101154.44
2018-08-11T17:54:38.521Z,101145.00
2018-08-11T17:57:08.097Z,101159.55
2018-08-11T17:59:37.562Z,101161.41
2018-08-11T18:02:08.028Z,101163.41
2018-08-11T18:04:37.445Z,101169.27
2018-08-11T18:07:07.480Z,101180.38
2018-08-11T18:09:36.886Z,101178.92
2018-08-11T18:12:06.482Z,101184.59
2018-08-11T18:14:44.678Z,101184.70
2018-08-11T18:17:46.866Z,101178.37
2018-08-11T18:20:21.196Z,101188.67
2018-08-11T18:23:07.470Z,101194.45
2018-08-11T18:25:47.171Z,101197.50
2018-08-11T18:28:29.556Z,101195.23
2018-08-11T18:31:10.663Z,101199.10
2018-08-11T18:33:54.618Z,101195.77
2018-08-11T18:36:34.856Z,101205.61
2018-08-11T18:39:14.189Z,101208.09
2018-08-11T18:41:45.118Z,101216.58
2018-08-11T18:44:16.964Z,101214.44
2018-08-11T18:46:49.873Z,101223.37
2018-08-11T18:49:27.989Z,101228.03
2018-08-11T18:52:05.475Z,101225.88
2018-08-11T18:54:44.993Z,101233.94
2018-08-11T18:57:20.473Z,101235.48
2018-08-11T18:59:50.525Z,101235.45
2018-08-11T19:02:21.018Z,101240.78
2018-08-11T19:04:51.409Z,101245.66
2018-08-11T19:07:27.657Z,101243.98
2018-08-11T19:09:57.602Z,101248.13
2018-08-11T19:12:27.533Z,101248.13
2018-08-11T19:14:57.357Z,101253.14
2018-08-11T19:17:27.473Z,101250.75
2018-08-11T19:19:57.294Z,101254.97
2018-08-11T19:22:27.424Z,101256.61
2018-08-11T19:25:06.087Z,101256.83
2018-08-11T19:27:35.510Z,101256.61
2018-08-11T19:30:06.266Z,101255.55
2018-08-11T19:32:37.245Z,101258.58
2018-08-11T19:35:10.270Z,101264.22
2018-08-11T19:37:40.836Z,101261.64
2018-08-11T19:40:10.903Z,101270.31
2018-08-11T19:42:40.370Z,101269.39
2018-08-11T19:45:11.847Z,101273.61
2018-08-11T19:47:41.911Z,101267.29
2018-08-11T19:50:12.547Z,101273.22
2018-08-11T19:52:48.249Z,101278.73
2018-08-11T19:55:18.324Z,101279.05
2018-08-11T19:57:48.349Z,101279.71
2018-08-11T20:00:17.906Z,101279.52
2018-08-11T20:02:48.098Z,101280.17
2018-08-11T20:05:18.145Z,101282.49
2018-08-11T20:07:47.835Z,101286.86
2018-08-11T20:10:17.420Z,101286.39
2018-08-11T20:12:47.204Z,101283.04
2018-08-11T20:15:16.713Z,101285.80
2018-08-11T20:17:46.377Z,101288.48
2018-08-11T20:20:15.944Z,101294.17
2018-08-11T20:22:45.400Z,101293.39
2018-08-11T20:25:15.433Z,101296.30
2018-08-11T20:27:45.476Z,101295.61
2018-08-11T20:30:22.104Z,101296.58
2018-08-11T20:32:51.884Z,101302.63
2018-08-11T20:35:21.815Z,101303.78
2018-08-11T20:37:51.879Z,101306.69
2018-08-11T20:40:21.428Z,101310.60
2018-08-11T20:42:51.105Z,101308.88
2018-08-11T20:45:20.663Z,101307.36
2018-08-11T20:47:50.917Z,101308.41
2018-08-11T20:50:20.577Z,101309.06
2018-08-11T20:52:50.678Z,101312.58
2018-08-11T20:55:20.214Z,101319.50
2018-08-11T20:57:49.788Z,101315.02
2018-08-11T21:00:19.426Z,101318.58
2018-08-11T21:02:49.279Z,101321.53
2018-08-11T21:05:18.885Z,101324.11
2018-08-11T21:07:48.402Z,101322.30
2018-08-11T21:10:18.042Z,101327.94
2018-08-11T21:12:49.224Z,101327.80
2018-08-11T21:15:19.248Z,101334.91
2018-08-11T21:17:49.000Z,101331.95
2018-08-11T21:20:19.132Z,101333.52
2018-08-11T21:22:49.208Z,101342.23
2018-08-11T21:25:18.887Z,101338.36
2018-08-11T21:27:48.588Z,101340.28
2018-08-11T21:30:18.359Z,101340.94
2018-08-11T21:32:47.988Z,101346.95
2018-08-11T21:35:17.804Z,101350.44
2018-08-11T21:37:47.884Z,101351.52
2018-08-11T21:40:17.347Z,101345.25
2018-08-11T21:42:46.780Z,101348.14
2018-08-11T21:45:16.675Z,101348.07
2018-08-11T21:47:46.168Z,101348.48
2018-08-11T21:50:15.700Z,101347.61
2018-08-11T21:52:45.176Z,101354.34
2018-08-11T21:55:15.120Z,101349.91
2018-08-11T21:57:45.000Z,101349.00
2018-08-11T22:00:51.397Z,101358.81
2018-08-11T22:03:20.941Z,101354.63
2018-08-11T22:05:50.489Z,101356.97
2018-08-11T22:08:20.143Z,101350.69
2018-08-11T22:10:49.999Z,101352.98
2018-08-11T22:13:19.852Z,101360.95
2018-08-11T22:15:49.506Z,101355.55
2018-08-11T22:18:19.463Z,101355.84
2018-08-11T22:20:48.986Z,101357.02
2018-08-11T22:23:18.436Z,101354.97
2018-08-11T22:25:48.384Z,101354.73
2018-08-11T22:28:18.308Z,101358.97
2018-08-11T22:30:47.799Z,101351.69
2018-08-11T22:33:17.321Z,101348.59
2018-08-11T22:35:46.921Z,101350.28
2018-08-11T22:38:16.361Z,101357.07
2018-08-11T22:40:45.818Z,101358.72
2018-08-11T22:43:15.312Z,101365.98
2018-08-11T22:45:45.506Z,101365.52
2018-08-11T22:48:15.587Z,101368.03
2018-08-11T22:50:45.088Z,101368.72
2018-08-11T22:53:15.006Z,101369.16
2018-08-11T22:55:44.790Z,101367.37
2018-08-11T22:58:14.475Z,101375.22
2018-08-11T23:00:43.980Z,101372.77
2018-08-11T23:03:13.899Z,101372.08
2018-08-11T23:05:43.355Z,101374.55
2018-08-11T23:08:12.835Z,101372.95
2018-08-11T23:10:42.263Z,101370.38
2018-08-11T23:13:12.156Z,101370.03
2018-08-11T23:15:42.288Z,101369.72
2018-08-11T23:18:11.733Z,101364.41
2018-08-11T23:20:41.621Z,101371.53
2018-08-11T23:23:11.527Z,101361.91
2018-08-11T23:25:41.475Z,101359.81
2018-08-11T23:28:11.293Z,101366.07
2018-08-11T23:30:40.704Z,101360.80
2018-08-11T23:33:10.573Z,101363.66
2018-08-11T23:35:40.387Z,101364.22
2018-08-11T23:38:10.467Z,101364.11
2018-08-11T23:40:39.852Z,101362.03
2018-08-11T23:43:09.367Z,101362.65
2018-08-11T23:45:39.283Z,101368.58
2018-08-11T23:48:09.252Z,101365.52
2018-08-11T23:50:39.048Z,101371.36
2018-08-11T23:53:08.650Z,101367.00
2018-08-11T23:55:38.160Z,101364.89
2018-08-11T23:58:07.668Z,101369.83
